Etusivu
METAR-TAF:

METAR-TAF

Lentoasemat :

Yao, Japani

Leveyspiiri: 34-36N, Pituuspiiri: 135-36E, korkeus merenpinnasta: 10 m

Tämänhetkinen sää

Tämä raportti tehtiin 1 tunti ja 10 minuuttia sitten, kello 05.00 UTC
Tuuli 9 kn lännestä
Lämpötila 27°C
Kosteus 74%
Ilmanpaine 1006 hPa
Näkyvyys 10 km tai enemmän
Muutamia pilviä 2500 ft:n korkeudessa
Hajonneita pilviä 18000 ft:n korkeudessa
Pilvistä

METAR: RJOY 220500Z 26009KT 9999 FEW025 BKN180 OVC/// 27/22 Q1006

Aika: 15:10 (06:10 UTC)


TAF: puuttuu

Säähavainnot ja -ennusteet yli 4000 lentoasemalta (METAR- ja TAF-raportit).

Käytössä olevat sääasemat on merkitty karttaan keltaisilla ja punaisilla pisteillä.

Aseta hiiri pisteen päälle nähdäksesi sääaseman nimen.

Klikkaa sitten nähdäksesi säähavainnot ja -ennusteet.

Kartan vaihtaminen: klikkaa mustalla rastilla varustettuja vihreitä pisteitä, niin voit zoomata sisään; viivalla varustettua vihreää pistettä, niin voit zoomata ulos tai vihreitä nuolia, niin pääset viereisille kartoille.


METAR-TAF: